createdAt,value
2018-06-28T00:00:09.818Z,77.85
2018-06-28T00:02:39.029Z,78.28
2018-06-28T00:05:08.288Z,78.14
2018-06-28T00:11:10.033Z,78.24
2018-06-28T00:13:39.205Z,78.05
2018-06-28T00:16:08.462Z,78.56
2018-06-28T00:18:37.654Z,78.17
2018-06-28T00:21:06.951Z,78.81
2018-06-28T00:23:36.086Z,78.00
2018-06-28T00:26:05.227Z,78.15
2018-06-28T00:28:34.391Z,78.33
2018-06-28T00:31:03.611Z,78.91
2018-06-28T00:33:32.799Z,78.36
2018-06-28T00:36:01.972Z,78.09
2018-06-28T00:38:31.189Z,77.72
2018-06-28T00:41:00.403Z,78.58
2018-06-28T00:43:29.612Z,78.20
2018-06-28T00:45:58.858Z,77.94
2018-06-28T00:48:28.054Z,78.47
2018-06-28T00:50:57.313Z,78.41
2018-06-28T00:53:26.455Z,78.20
2018-06-28T00:55:55.679Z,78.04
2018-06-28T00:58:24.841Z,78.21
2018-06-28T01:00:54.015Z,77.31
2018-06-28T01:03:23.182Z,77.55
2018-06-28T01:05:52.377Z,79.05
2018-06-28T01:08:21.614Z,78.67
2018-06-28T01:10:50.770Z,78.08
2018-06-28T01:13:20.028Z,77.87
2018-06-28T01:15:49.266Z,78.75
2018-06-28T01:18:18.418Z,79.05
2018-06-28T01:20:47.684Z,78.80
2018-06-28T01:23:16.812Z,79.04
2018-06-28T01:25:45.948Z,79.18
2018-06-28T01:28:15.100Z,78.83
2018-06-28T01:30:44.228Z,79.12
2018-06-28T01:33:13.524Z,79.45
2018-06-28T01:35:42.726Z,79.56
2018-06-28T01:38:11.866Z,79.26
2018-06-28T01:40:41.012Z,80.30
2018-06-28T01:43:36.755Z,80.08
2018-06-28T01:46:05.948Z,80.46
2018-06-28T01:48:35.101Z,81.01
2018-06-28T01:51:04.336Z,81.38
2018-06-28T01:53:33.493Z,81.44
2018-06-28T01:56:02.698Z,80.62
2018-06-28T01:58:31.887Z,79.87
2018-06-28T02:01:01.095Z,79.57
2018-06-28T02:03:30.237Z,80.82
2018-06-28T02:05:59.384Z,82.07
2018-06-28T02:08:28.502Z,82.54
2018-06-28T02:10:57.731Z,83.12
2018-06-28T02:13:26.884Z,82.36
2018-06-28T02:15:56.192Z,82.87
2018-06-28T02:18:25.382Z,83.23
2018-06-28T02:20:54.612Z,83.54
2018-06-28T02:23:23.786Z,83.70
2018-06-28T02:25:52.912Z,84.43
2018-06-28T02:28:22.064Z,84.87
2018-06-28T02:30:51.194Z,84.80
2018-06-28T02:33:20.332Z,84.75
2018-06-28T02:35:49.508Z,84.47
2018-06-28T02:38:18.689Z,84.71
2018-06-28T02:40:47.819Z,85.83
2018-06-28T02:43:17.010Z,85.83
2018-06-28T02:45:46.137Z,85.72
2018-06-28T02:48:15.262Z,86.21
2018-06-28T02:50:44.397Z,85.63
2018-06-28T02:53:13.549Z,85.52
2018-06-28T02:55:42.698Z,85.84
2018-06-28T02:58:11.911Z,86.21
2018-06-28T03:00:41.123Z,86.87
2018-06-28T03:03:10.275Z,86.69
2018-06-28T03:05:39.446Z,86.44
2018-06-28T03:08:08.852Z,86.73
2018-06-28T03:10:38.077Z,87.01
2018-06-28T03:13:07.257Z,86.90
2018-06-28T03:15:36.457Z,86.62
2018-06-28T03:18:05.607Z,86.78
2018-06-28T03:20:34.852Z,87.36
2018-06-28T03:23:04.057Z,87.19
2018-06-28T03:25:33.154Z,87.65
2018-06-28T03:28:02.321Z,87.19
2018-06-28T03:30:31.487Z,86.68
2018-06-28T03:33:00.659Z,86.69
2018-06-28T03:35:29.839Z,86.75
2018-06-28T03:37:59.058Z,87.29
2018-06-28T03:40:28.098Z,87.11
2018-06-28T03:42:57.185Z,87.69
2018-06-28T03:45:26.279Z,86.47
2018-06-28T03:47:55.449Z,86.40
2018-06-28T03:50:24.575Z,86.52
2018-06-28T03:52:53.643Z,86.98
2018-06-28T03:55:22.799Z,87.62
2018-06-28T03:57:51.995Z,88.16
2018-06-28T04:00:21.242Z,88.45
2018-06-28T04:02:50.401Z,88.33
2018-06-28T04:05:19.652Z,87.80
2018-06-28T04:07:49.090Z,88.30
2018-06-28T04:10:18.249Z,88.44
2018-06-28T04:12:47.365Z,86.99
2018-06-28T04:15:16.650Z,87.27
2018-06-28T04:17:45.782Z,85.96
2018-06-28T04:20:15.026Z,86.20
2018-06-28T04:22:44.207Z,86.38
2018-06-28T04:25:13.413Z,87.55
2018-06-28T04:27:42.580Z,87.47
2018-06-28T04:30:11.784Z,88.24
2018-06-28T04:32:40.953Z,87.83
2018-06-28T04:35:10.144Z,88.09
2018-06-28T04:37:39.273Z,86.73
2018-06-28T04:40:08.425Z,87.27
2018-06-28T04:42:37.602Z,87.54
2018-06-28T04:45:06.938Z,87.26
2018-06-28T04:47:36.105Z,88.50
2018-06-28T04:50:05.317Z,89.24
2018-06-28T04:52:34.560Z,89.27
2018-06-28T04:55:03.934Z,88.90
2018-06-28T04:57:33.113Z,89.40
2018-06-28T05:00:02.254Z,88.81
2018-06-28T05:02:31.447Z,89.65
2018-06-28T05:05:00.665Z,89.36
2018-06-28T05:07:29.841Z,89.48
2018-06-28T05:09:59.015Z,89.20
2018-06-28T05:12:28.222Z,89.10
2018-06-28T05:14:57.356Z,88.99
2018-06-28T05:17:26.575Z,88.97
2018-06-28T05:19:55.759Z,89.05
2018-06-28T05:22:24.959Z,89.02
2018-06-28T05:24:54.141Z,88.70
2018-06-28T05:27:23.355Z,88.54
2018-06-28T05:29:52.546Z,88.72
2018-06-28T05:32:21.782Z,88.42
2018-06-28T05:34:51.252Z,88.83
2018-06-28T05:37:20.412Z,89.00
2018-06-28T05:39:49.683Z,88.49
2018-06-28T05:42:18.866Z,89.09
2018-06-28T05:44:48.119Z,89.79
2018-06-28T05:47:17.318Z,89.50
2018-06-28T05:49:46.565Z,89.37
2018-06-28T05:52:15.790Z,89.33
2018-06-28T05:54:45.005Z,89.75
2018-06-28T05:57:14.274Z,89.89
2018-06-28T05:59:43.803Z,89.53
2018-06-28T06:02:13.070Z,90.01
2018-06-28T06:04:42.289Z,90.27
2018-06-28T06:07:11.817Z,90.59
2018-06-28T06:09:41.017Z,90.56
2018-06-28T06:12:10.376Z,89.50
2018-06-28T06:14:39.490Z,90.00
2018-06-28T06:17:08.658Z,89.58
2018-06-28T06:19:37.856Z,90.41
2018-06-28T06:22:07.060Z,90.41
2018-06-28T06:24:36.203Z,90.75
2018-06-28T06:27:05.429Z,91.35
2018-06-28T06:29:34.610Z,91.80
2018-06-28T06:32:03.900Z,89.87
2018-06-28T06:34:33.109Z,89.13
2018-06-28T06:37:02.359Z,89.08
2018-06-28T06:39:31.680Z,89.86
2018-06-28T06:42:00.868Z,90.38
2018-06-28T06:44:30.020Z,90.13
2018-06-28T06:46:59.349Z,88.74
2018-06-28T06:49:28.544Z,88.59
2018-06-28T06:51:57.696Z,88.00
2018-06-28T06:54:26.809Z,88.52
2018-06-28T06:56:56.000Z,88.93
2018-06-28T06:59:25.138Z,89.77
2018-06-28T07:01:54.245Z,89.33
2018-06-28T07:04:23.378Z,91.05
2018-06-28T07:06:52.562Z,90.25
2018-06-28T07:09:21.740Z,90.94
2018-06-28T07:11:50.928Z,91.57
2018-06-28T07:14:20.110Z,91.77
2018-06-28T07:16:49.264Z,92.27
2018-06-28T07:19:18.410Z,93.42
2018-06-28T07:21:47.646Z,93.46
2018-06-28T07:24:16.864Z,92.83
2018-06-28T07:26:46.083Z,93.20
2018-06-28T07:29:15.160Z,92.99
2018-06-28T07:31:44.318Z,92.53
2018-06-28T07:34:13.487Z,92.52
2018-06-28T07:36:42.582Z,92.59
2018-06-28T07:39:13.078Z,92.86
2018-06-28T07:41:42.268Z,92.89
2018-06-28T07:44:11.460Z,92.41
2018-06-28T07:46:40.600Z,93.49
2018-06-28T07:49:09.791Z,92.89
2018-06-28T07:51:38.921Z,92.67
2018-06-28T07:54:08.063Z,93.25
2018-06-28T07:56:37.247Z,93.50
2018-06-28T07:59:06.372Z,93.31
2018-06-28T08:01:35.565Z,92.99
2018-06-28T08:04:04.743Z,92.08
2018-06-28T08:06:33.886Z,91.84
2018-06-28T08:09:04.059Z,92.76
2018-06-28T08:11:33.239Z,92.36
2018-06-28T08:14:02.370Z,92.20
2018-06-28T08:16:31.626Z,92.65
2018-06-28T08:19:00.788Z,93.00
2018-06-28T08:21:29.924Z,92.57
2018-06-28T08:23:59.054Z,93.29
2018-06-28T08:26:28.252Z,93.37
2018-06-28T08:28:57.410Z,93.46
2018-06-28T08:31:26.610Z,92.75
2018-06-28T08:33:56.032Z,92.65
2018-06-28T08:36:25.185Z,93.38
2018-06-28T08:38:54.328Z,92.86
2018-06-28T08:41:23.493Z,92.16
2018-06-28T08:43:52.692Z,92.85
2018-06-28T08:46:21.870Z,92.20
2018-06-28T08:48:51.065Z,92.79
2018-06-28T08:51:20.190Z,94.18
2018-06-28T08:53:49.389Z,94.20
2018-06-28T08:56:18.566Z,94.35
2018-06-28T08:58:47.803Z,94.92
2018-06-28T09:01:17.026Z,94.36
2018-06-28T09:03:46.158Z,95.33
2018-06-28T09:06:15.432Z,95.14
2018-06-28T09:08:44.709Z,94.81
2018-06-28T09:11:14.035Z,93.56
2018-06-28T09:13:43.171Z,93.51
2018-06-28T09:16:12.297Z,92.48
2018-06-28T09:18:41.724Z,92.64
2018-06-28T09:21:10.874Z,92.13
2018-06-28T09:23:40.087Z,91.93
2018-06-28T09:26:09.349Z,93.40
2018-06-28T09:28:38.496Z,93.43
2018-06-28T09:31:07.724Z,93.27
2018-06-28T09:33:37.006Z,92.41
2018-06-28T09:36:06.231Z,92.55
2018-06-28T09:38:35.424Z,92.30
2018-06-28T09:41:04.627Z,91.44
2018-06-28T09:43:33.832Z,92.64
2018-06-28T09:46:03.323Z,93.19
2018-06-28T09:48:32.535Z,94.32
2018-06-28T09:51:01.638Z,93.85
2018-06-28T09:53:30.848Z,94.20
2018-06-28T09:56:00.046Z,93.58
2018-06-28T09:58:29.200Z,94.33
2018-06-28T10:00:58.372Z,94.46
2018-06-28T10:03:27.684Z,94.79
2018-06-28T10:05:56.821Z,95.25
2018-06-28T10:08:26.005Z,95.16
2018-06-28T10:10:55.170Z,95.23
2018-06-28T10:13:24.300Z,94.95
2018-06-28T10:15:53.477Z,94.12
2018-06-28T10:18:22.655Z,93.29
2018-06-28T10:20:51.859Z,93.91
2018-06-28T10:23:21.093Z,94.63
2018-06-28T10:25:50.343Z,94.42
2018-06-28T10:28:19.588Z,94.81
2018-06-28T10:30:48.757Z,94.36
2018-06-28T10:33:17.941Z,94.65
2018-06-28T10:35:47.105Z,93.81
2018-06-28T10:38:16.332Z,94.58
2018-06-28T10:40:45.526Z,93.56
2018-06-28T10:43:14.693Z,93.00
2018-06-28T10:45:43.803Z,93.61
2018-06-28T10:48:12.996Z,94.04
2018-06-28T10:50:42.177Z,94.10
2018-06-28T10:53:11.645Z,93.81
2018-06-28T10:55:40.790Z,92.93
2018-06-28T10:58:09.906Z,91.81
2018-06-28T11:00:39.121Z,93.56
2018-06-28T11:03:08.281Z,93.18
2018-06-28T11:05:37.421Z,93.17
2018-06-28T11:08:06.609Z,93.99
2018-06-28T11:10:35.751Z,93.51
2018-06-28T11:13:04.927Z,93.30
2018-06-28T11:15:34.113Z,93.21
2018-06-28T11:18:03.304Z,93.79
2018-06-28T11:20:32.482Z,93.28
2018-06-28T11:23:01.654Z,93.86
2018-06-28T11:25:30.830Z,94.78
2018-06-28T11:27:59.943Z,94.43
2018-06-28T11:30:29.152Z,94.35
2018-06-28T11:32:58.281Z,94.64
2018-06-28T11:35:27.505Z,95.56
2018-06-28T11:37:57.105Z,94.67
2018-06-28T11:40:26.670Z,95.03
2018-06-28T11:42:55.797Z,95.27
2018-06-28T11:45:24.953Z,95.23
2018-06-28T11:47:54.103Z,95.04
2018-06-28T11:50:23.284Z,96.14
2018-06-28T11:52:52.540Z,96.41
2018-06-28T11:55:21.760Z,95.31
2018-06-28T11:57:51.043Z,95.26
2018-06-28T12:00:20.295Z,95.44
2018-06-28T12:02:49.443Z,95.92
2018-06-28T12:05:18.771Z,96.48
2018-06-28T12:07:47.934Z,96.00
2018-06-28T12:10:17.052Z,96.92
2018-06-28T12:12:46.277Z,96.30
2018-06-28T12:15:15.515Z,96.63
2018-06-28T12:17:44.745Z,97.29
2018-06-28T12:20:14.014Z,97.16
2018-06-28T12:22:43.217Z,97.21
2018-06-28T12:25:12.405Z,97.01
2018-06-28T12:27:41.629Z,97.54
2018-06-28T12:30:10.844Z,96.91
2018-06-28T12:32:39.992Z,97.58
2018-06-28T12:35:09.168Z,97.22
2018-06-28T12:37:38.312Z,97.23
2018-06-28T12:40:07.570Z,97.68
2018-06-28T12:42:36.697Z,97.54
2018-06-28T12:45:06.080Z,97.86
2018-06-28T12:47:52.749Z,97.96
2018-06-28T12:50:22.146Z,97.29
2018-06-28T12:52:55.507Z,97.84
2018-06-28T12:55:25.409Z,97.16
2018-06-28T12:57:58.354Z,97.37
2018-06-28T13:00:27.549Z,97.89
2018-06-28T13:02:56.705Z,98.38
2018-06-28T13:05:25.865Z,98.10
2018-06-28T13:07:56.058Z,98.30
2018-06-28T13:10:25.388Z,98.48
2018-06-28T13:12:54.608Z,98.64
2018-06-28T13:15:23.759Z,98.69
2018-06-28T13:17:52.930Z,97.85
2018-06-28T13:20:22.249Z,98.24
2018-06-28T13:22:51.424Z,98.90
2018-06-28T13:25:20.572Z,99.00
2018-06-28T13:27:49.758Z,99.26
2018-06-28T13:30:18.900Z,99.43
2018-06-28T13:32:48.096Z,98.88
2018-06-28T13:35:17.344Z,99.23
2018-06-28T13:37:46.560Z,99.08
2018-06-28T13:40:15.729Z,99.05
2018-06-28T13:42:44.930Z,99.69
2018-06-28T13:45:14.117Z,99.90
2018-06-28T13:47:43.335Z,99.31
2018-06-28T13:50:12.482Z,98.85
2018-06-28T13:52:41.636Z,98.86
2018-06-28T13:55:10.845Z,98.73
2018-06-28T13:57:40.154Z,99.44
2018-06-28T14:00:09.475Z,99.32
2018-06-28T14:02:38.617Z,99.13
2018-06-28T14:05:07.818Z,99.46
2018-06-28T14:07:36.982Z,99.31
2018-06-28T14:10:06.186Z,99.25
2018-06-28T14:12:35.399Z,99.63
2018-06-28T14:15:05.002Z,100.00
2018-06-28T14:17:34.630Z,100.00
2018-06-28T14:20:05.025Z,100.00
2018-06-28T14:22:34.237Z,100.00
2018-06-28T14:25:04.024Z,100.00
2018-06-28T14:27:33.195Z,99.89
2018-06-28T14:30:03.384Z,100.00
2018-06-28T14:32:32.601Z,100.00
2018-06-28T14:35:01.836Z,100.00
2018-06-28T14:37:30.936Z,99.56
2018-06-28T14:40:00.112Z,99.60
2018-06-28T14:42:29.334Z,99.74
2018-06-28T14:44:58.515Z,99.21
2018-06-28T14:47:27.913Z,99.66
2018-06-28T14:49:57.150Z,99.58
2018-06-28T14:52:26.330Z,99.77
2018-06-28T14:54:55.472Z,99.68
2018-06-28T14:57:24.729Z,99.57
2018-06-28T14:59:53.869Z,98.93
2018-06-28T15:02:23.022Z,99.11
2018-06-28T15:04:52.175Z,99.31
2018-06-28T15:07:21.370Z,99.39
2018-06-28T15:09:50.545Z,99.55
2018-06-28T15:12:19.900Z,99.32
2018-06-28T15:14:49.032Z,99.31
2018-06-28T15:17:18.257Z,99.12
2018-06-28T15:19:47.375Z,99.52
2018-06-28T15:22:17.308Z,100.00
2018-06-28T15:24:46.657Z,99.73
2018-06-28T15:27:15.943Z,99.46
2018-06-28T15:29:45.153Z,99.49
2018-06-28T15:32:14.367Z,99.94
2018-06-28T15:34:43.591Z,99.97
2018-06-28T15:37:12.794Z,99.74
2018-06-28T15:39:41.948Z,99.78
2018-06-28T15:42:11.365Z,99.77
2018-06-28T15:44:40.698Z,100.00
2018-06-28T15:47:09.909Z,99.69
2018-06-28T15:49:39.094Z,100.00
2018-06-28T15:52:08.410Z,100.00
2018-06-28T15:54:37.516Z,100.00
2018-06-28T15:57:06.678Z,100.00
2018-06-28T15:59:35.914Z,100.00
2018-06-28T16:02:05.205Z,100.00
2018-06-28T16:04:34.554Z,100.00
2018-06-28T16:07:03.790Z,100.00
2018-06-28T16:09:33.004Z,100.00
2018-06-28T16:12:02.221Z,100.00
2018-06-28T16:14:31.450Z,100.00
2018-06-28T16:17:00.667Z,100.00
2018-06-28T16:19:30.005Z,100.00
2018-06-28T16:21:59.371Z,100.00
2018-06-28T16:24:28.504Z,100.00
2018-06-28T16:26:57.729Z,100.00
2018-06-28T16:29:26.907Z,100.00
2018-06-28T16:31:56.157Z,100.00
2018-06-28T16:34:25.362Z,100.00
2018-06-28T16:36:54.579Z,100.00
2018-06-28T16:39:23.711Z,100.00
2018-06-28T16:41:52.926Z,100.00
2018-06-28T16:44:22.131Z,100.00
2018-06-28T16:46:51.601Z,100.00
2018-06-28T16:49:20.731Z,100.00
2018-06-28T16:51:49.999Z,100.00
2018-06-28T16:54:19.205Z,100.00
2018-06-28T16:56:48.413Z,100.00
2018-06-28T16:59:17.563Z,100.00
2018-06-28T17:01:46.718Z,100.00
2018-06-28T17:04:16.068Z,100.00
2018-06-28T17:06:45.408Z,100.00
2018-06-28T17:09:14.538Z,100.00
2018-06-28T17:11:43.735Z,100.00
2018-06-28T17:14:12.962Z,100.00
2018-06-28T17:16:42.236Z,100.00
2018-06-28T17:19:11.517Z,100.00
2018-06-28T17:21:40.741Z,100.00
2018-06-28T17:24:09.946Z,100.00
2018-06-28T17:26:39.725Z,100.00
2018-06-28T17:29:08.959Z,100.00
2018-06-28T17:31:38.224Z,100.00
2018-06-28T17:34:07.440Z,100.00
2018-06-28T17:36:36.705Z,100.00
2018-06-28T17:39:07.465Z,100.00
2018-06-28T17:41:36.639Z,100.00
2018-06-28T17:44:05.850Z,100.00
2018-06-28T17:46:35.101Z,100.00
2018-06-28T17:49:04.297Z,100.00
2018-06-28T17:51:33.506Z,100.00
2018-06-28T17:54:02.994Z,100.00
2018-06-28T17:56:32.258Z,100.00
2018-06-28T17:59:01.487Z,100.00
2018-06-28T18:01:30.714Z,100.00
2018-06-28T18:03:59.989Z,100.00
2018-06-28T18:06:29.266Z,100.00
2018-06-28T18:08:58.598Z,100.00
2018-06-28T18:11:28.004Z,100.00
2018-06-28T18:13:57.484Z,100.00
2018-06-28T18:16:26.673Z,100.00
2018-06-28T18:18:55.996Z,100.00
2018-06-28T18:21:25.280Z,100.00
2018-06-28T18:23:54.484Z,100.00
2018-06-28T18:26:23.997Z,100.00
2018-06-28T18:28:53.253Z,100.00
2018-06-28T18:31:22.456Z,100.00
2018-06-28T18:33:51.639Z,100.00
2018-06-28T18:36:20.809Z,100.00
2018-06-28T18:38:50.029Z,100.00
2018-06-28T18:41:19.243Z,100.00
2018-06-28T18:43:48.405Z,100.00
2018-06-28T18:46:17.632Z,100.00
2018-06-28T18:48:46.865Z,100.00
2018-06-28T18:51:16.081Z,100.00
2018-06-28T18:53:45.314Z,100.00
2018-06-28T18:56:14.631Z,100.00
2018-06-28T18:58:43.924Z,100.00
2018-06-28T19:01:13.160Z,100.00
2018-06-28T19:03:42.368Z,100.00
2018-06-28T19:06:11.607Z,100.00
2018-06-28T19:08:40.946Z,100.00
2018-06-28T19:11:10.138Z,100.00
2018-06-28T19:13:44.498Z,100.00
2018-06-28T19:16:19.098Z,100.00
2018-06-28T19:18:48.332Z,100.00
2018-06-28T19:21:22.685Z,100.00
2018-06-28T19:23:52.655Z,100.00
2018-06-28T19:26:21.913Z,100.00
2018-06-28T19:28:51.100Z,100.00
2018-06-28T19:31:25.714Z,100.00
2018-06-28T19:33:55.092Z,100.00
2018-06-28T19:36:24.379Z,100.00
2018-06-28T19:38:58.838Z,100.00
2018-06-28T19:41:33.318Z,100.00
2018-06-28T19:44:02.577Z,100.00
2018-06-28T19:46:31.952Z,100.00
2018-06-28T19:49:01.211Z,100.00
2018-06-28T19:51:35.943Z,100.00
2018-06-28T19:54:05.262Z,100.00
2018-06-28T19:56:34.472Z,100.00
2018-06-28T19:59:03.764Z,100.00
2018-06-28T20:01:38.104Z,100.00
2018-06-28T20:04:12.899Z,100.00
2018-06-28T20:06:43.628Z,100.00
2018-06-28T20:09:13.215Z,100.00
2018-06-28T20:11:42.471Z,100.00
2018-06-28T20:14:16.887Z,100.00
2018-06-28T20:16:51.456Z,100.00
2018-06-28T20:19:25.818Z,100.00
2018-06-28T20:21:55.054Z,100.00
2018-06-28T20:24:24.309Z,100.00
2018-06-28T20:26:58.737Z,100.00
2018-06-28T20:29:33.264Z,100.00
2018-06-28T20:32:07.830Z,100.00
2018-06-28T20:34:37.028Z,100.00
2018-06-28T20:37:06.278Z,100.00
2018-06-28T20:39:35.534Z,100.00
2018-06-28T20:42:04.908Z,100.00
2018-06-28T20:44:34.126Z,100.00
2018-06-28T20:47:03.598Z,100.00
2018-06-28T20:49:32.804Z,100.00
2018-06-28T20:52:02.042Z,100.00
2018-06-28T20:54:31.344Z,100.00
2018-06-28T20:57:00.581Z,100.00
2018-06-28T20:59:29.752Z,100.00
2018-06-28T21:01:58.930Z,100.00
2018-06-28T21:04:28.141Z,100.00
2018-06-28T21:06:57.363Z,100.00
2018-06-28T21:09:26.577Z,100.00
2018-06-28T21:11:55.813Z,100.00
2018-06-28T21:14:24.998Z,100.00
2018-06-28T21:16:54.502Z,100.00
2018-06-28T21:19:23.680Z,100.00
2018-06-28T21:21:52.915Z,100.00
2018-06-28T21:24:22.093Z,100.00
2018-06-28T21:26:51.357Z,100.00
2018-06-28T21:29:20.524Z,100.00
2018-06-28T21:31:49.797Z,100.00
2018-06-28T21:34:19.141Z,100.00
2018-06-28T21:36:48.367Z,100.00
2018-06-28T21:39:17.656Z,100.00
2018-06-28T21:41:46.814Z,100.00
2018-06-28T21:44:16.052Z,100.00
2018-06-28T21:46:45.224Z,100.00
2018-06-28T21:49:14.402Z,100.00
2018-06-28T21:51:43.606Z,100.00
2018-06-28T21:54:12.811Z,100.00
2018-06-28T21:56:42.002Z,100.00
2018-06-28T21:59:11.441Z,100.00
2018-06-28T22:01:50.116Z,100.00
2018-06-28T22:04:19.393Z,100.00
2018-06-28T22:06:48.948Z,100.00
2018-06-28T22:09:19.513Z,100.00
2018-06-28T22:11:48.909Z,100.00
2018-06-28T22:14:18.218Z,100.00
2018-06-28T22:16:47.347Z,100.00
2018-06-28T22:19:16.549Z,100.00
2018-06-28T22:21:45.748Z,100.00
2018-06-28T22:24:14.950Z,100.00
2018-06-28T22:26:44.200Z,100.00
2018-06-28T22:29:14.129Z,100.00
2018-06-28T22:31:43.554Z,100.00
2018-06-28T22:34:12.787Z,100.00
2018-06-28T22:36:42.021Z,100.00
2018-06-28T22:39:12.984Z,100.00
2018-06-28T22:41:42.379Z,100.00
2018-06-28T22:44:11.547Z,100.00
2018-06-28T22:46:40.777Z,100.00
2018-06-28T22:49:10.046Z,100.00
2018-06-28T22:51:39.320Z,100.00
2018-06-28T22:54:08.611Z,100.00
2018-06-28T22:56:37.965Z,100.00
2018-06-28T22:59:07.397Z,100.00
2018-06-28T23:01:36.684Z,100.00
2018-06-28T23:04:05.893Z,100.00
2018-06-28T23:06:35.160Z,100.00
2018-06-28T23:09:06.686Z,100.00
2018-06-28T23:11:35.920Z,100.00
2018-06-28T23:14:05.279Z,100.00
2018-06-28T23:16:34.553Z,100.00
2018-06-28T23:19:03.842Z,100.00
2018-06-28T23:21:33.026Z,100.00
2018-06-28T23:24:02.309Z,100.00
2018-06-28T23:26:31.529Z,100.00
2018-06-28T23:29:00.808Z,100.00
2018-06-28T23:31:30.060Z,100.00
2018-06-28T23:33:59.357Z,100.00
2018-06-28T23:36:28.647Z,100.00
2018-06-28T23:38:57.843Z,100.00
2018-06-28T23:41:27.026Z,100.00
2018-06-28T23:43:56.270Z,100.00
2018-06-28T23:46:25.524Z,100.00
2018-06-28T23:48:54.884Z,100.00
2018-06-28T23:51:24.440Z,100.00
2018-06-28T23:53:53.715Z,100.00
2018-06-28T23:56:22.999Z,100.00
2018-06-28T23:58:52.340Z,100.00
